sensor_id;sensor_type;location;lat;lon;timestamp;temperature;humidity
63219;DHT22;49320;52.512;13.448;2023-02-18T00:01:28;10.50;65.10
63219;DHT22;49320;52.512;13.448;2023-02-18T00:03:58;10.50;65.20
63219;DHT22;49320;52.512;13.448;2023-02-18T00:06:29;10.50;65.30
63219;DHT22;49320;52.512;13.448;2023-02-18T00:08:58;10.40;65.30
63219;DHT22;49320;52.512;13.448;2023-02-18T00:11:29;10.40;64.80
63219;DHT22;49320;52.512;13.448;2023-02-18T00:14:01;10.30;65.40
63219;DHT22;49320;52.512;13.448;2023-02-18T00:16:29;10.40;65.40
63219;DHT22;49320;52.512;13.448;2023-02-18T00:18:59;10.40;65.70
63219;DHT22;49320;52.512;13.448;2023-02-18T00:21:27;10.40;65.20
63219;DHT22;49320;52.512;13.448;2023-02-18T00:23:55;10.40;65.80
63219;DHT22;49320;52.512;13.448;2023-02-18T00:31:20;10.30;65.30
63219;DHT22;49320;52.512;13.448;2023-02-18T00:36:18;10.30;65.40
63219;DHT22;49320;52.512;13.448;2023-02-18T00:38:55;10.30;66.20
63219;DHT22;49320;52.512;13.448;2023-02-18T00:41:26;10.30;66.20
63219;DHT22;49320;52.512;13.448;2023-02-18T00:43:54;10.30;66.30
63219;DHT22;49320;52.512;13.448;2023-02-18T00:46:22;10.30;66.40
63219;DHT22;49320;52.512;13.448;2023-02-18T00:48:49;10.20;65.80
63219;DHT22;49320;52.512;13.448;2023-02-18T00:51:16;10.20;65.80
63219;DHT22;49320;52.512;13.448;2023-02-18T00:53:43;10.20;66.50
63219;DHT22;49320;52.512;13.448;2023-02-18T00:56:10;10.20;66.60
63219;DHT22;49320;52.512;13.448;2023-02-18T00:58:37;9.90;65.90
63219;DHT22;49320;52.512;13.448;2023-02-18T01:01:05;10.10;66.80
63219;DHT22;49320;52.512;13.448;2023-02-18T01:03:34;10.10;66.30
63219;DHT22;49320;52.512;13.448;2023-02-18T01:06:02;10.00;67.60
63219;DHT22;49320;52.512;13.448;2023-02-18T01:08:30;10.00;67.00
63219;DHT22;49320;52.512;13.448;2023-02-18T01:10:58;9.90;67.10
63219;DHT22;49320;52.512;13.448;2023-02-18T01:13:26;10.00;67.30
63219;DHT22;49320;52.512;13.448;2023-02-18T01:15:53;9.90;67.30
63219;DHT22;49320;52.512;13.448;2023-02-18T01:18:21;9.90;67.30
63219;DHT22;49320;52.512;13.448;2023-02-18T01:20:48;9.90;67.40
63219;DHT22;49320;52.512;13.448;2023-02-18T01:23:15;9.90;67.40
63219;DHT22;49320;52.512;13.448;2023-02-18T01:25:43;9.90;66.80
63219;DHT22;49320;52.512;13.448;2023-02-18T01:28:12;9.80;67.50
63219;DHT22;49320;52.512;13.448;2023-02-18T01:30:40;9.80;67.50
63219;DHT22;49320;52.512;13.448;2023-02-18T01:33:08;9.80;67.50
63219;DHT22;49320;52.512;13.448;2023-02-18T01:35:38;9.80;67.60
63219;DHT22;49320;52.512;13.448;2023-02-18T01:38:06;9.70;67.60
63219;DHT22;49320;52.512;13.448;2023-02-18T01:43:01;9.70;67.10
63219;DHT22;49320;52.512;13.448;2023-02-18T01:48:24;9.70;67.80
63219;DHT22;49320;52.512;13.448;2023-02-18T01:51:04;9.60;67.10
63219;DHT22;49320;52.512;13.448;2023-02-18T01:53:50;9.70;67.80
63219;DHT22;49320;52.512;13.448;2023-02-18T01:56:27;9.70;67.20
63219;DHT22;49320;52.512;13.448;2023-02-18T01:59:01;9.70;67.40
63219;DHT22;49320;52.512;13.448;2023-02-18T02:01:33;9.70;67.40
63219;DHT22;49320;52.512;13.448;2023-02-18T02:04:01;9.60;67.90
63219;DHT22;49320;52.512;13.448;2023-02-18T02:06:28;9.60;68.00
63219;DHT22;49320;52.512;13.448;2023-02-18T02:08:58;9.60;68.00
63219;DHT22;49320;52.512;13.448;2023-02-18T02:14:52;9.60;67.40
63219;DHT22;49320;52.512;13.448;2023-02-18T02:17:27;9.60;67.50
63219;DHT22;49320;52.512;13.448;2023-02-18T02:26:40;9.60;67.60
63219;DHT22;49320;52.512;13.448;2023-02-18T02:29:37;9.60;67.60
63219;DHT22;49320;52.512;13.448;2023-02-18T02:38:57;9.60;68.30
63219;DHT22;49320;52.512;13.448;2023-02-18T02:41:43;9.50;67.60
63219;DHT22;49320;52.512;13.448;2023-02-18T02:47:12;9.20;67.60
63219;DHT22;49320;52.512;13.448;2023-02-18T02:49:56;9.50;67.80
63219;DHT22;49320;52.512;13.448;2023-02-18T02:52:43;9.50;67.80
63219;DHT22;49320;52.512;13.448;2023-02-18T02:55:13;9.50;67.80
63219;DHT22;49320;52.512;13.448;2023-02-18T02:57:44;9.50;67.90
63219;DHT22;49320;52.512;13.448;2023-02-18T03:00:15;9.40;68.40
63219;DHT22;49320;52.512;13.448;2023-02-18T03:03:09;9.50;68.40
63219;DHT22;49320;52.512;13.448;2023-02-18T03:06:00;9.50;68.50
63219;DHT22;49320;52.512;13.448;2023-02-18T03:11:47;9.40;67.80
63219;DHT22;49320;52.512;13.448;2023-02-18T03:15:03;9.40;68.50
63219;DHT22;49320;52.512;13.448;2023-02-18T03:17:34;9.40;68.40
63219;DHT22;49320;52.512;13.448;2023-02-18T03:20:14;9.40;68.40
63219;DHT22;49320;52.512;13.448;2023-02-18T03:22:51;9.40;68.40
63219;DHT22;49320;52.512;13.448;2023-02-18T03:28:01;9.40;67.90
63219;DHT22;49320;52.512;13.448;2023-02-18T03:30:52;9.40;68.40
63219;DHT22;49320;52.512;13.448;2023-02-18T03:33:36;9.40;68.40
63219;DHT22;49320;52.512;13.448;2023-02-18T03:36:08;9.40;68.40
63219;DHT22;49320;52.512;13.448;2023-02-18T03:38:46;9.30;67.70
63219;DHT22;49320;52.512;13.448;2023-02-18T03:41:19;9.30;68.30
63219;DHT22;49320;52.512;13.448;2023-02-18T03:43:53;9.30;67.70
63219;DHT22;49320;52.512;13.448;2023-02-18T03:46:29;9.40;67.80
63219;DHT22;49320;52.512;13.448;2023-02-18T03:48:57;9.30;67.80
63219;DHT22;49320;52.512;13.448;2023-02-18T03:51:24;9.40;67.70
63219;DHT22;49320;52.512;13.448;2023-02-18T03:53:51;9.30;67.80
63219;DHT22;49320;52.512;13.448;2023-02-18T03:56:18;9.40;68.40
63219;DHT22;49320;52.512;13.448;2023-02-18T03:58:46;9.40;67.80
63219;DHT22;49320;52.512;13.448;2023-02-18T04:01:12;9.40;68.30
63219;DHT22;49320;52.512;13.448;2023-02-18T04:03:39;9.40;68.10
63219;DHT22;49320;52.512;13.448;2023-02-18T04:06:06;9.40;68.10
63219;DHT22;49320;52.512;13.448;2023-02-18T04:08:34;9.40;68.00
63219;DHT22;49320;52.512;13.448;2023-02-18T04:11:01;9.20;67.90
63219;DHT22;49320;52.512;13.448;2023-02-18T04:13:28;9.40;67.50
63219;DHT22;49320;52.512;13.448;2023-02-18T04:15:54;9.30;68.00
63219;DHT22;49320;52.512;13.448;2023-02-18T04:18:21;9.40;68.80
63219;DHT22;49320;52.512;13.448;2023-02-18T04:20:49;9.40;67.20
63219;DHT22;49320;52.512;13.448;2023-02-18T04:23:15;9.40;67.90
63219;DHT22;49320;52.512;13.448;2023-02-18T04:25:42;9.40;67.00
63219;DHT22;49320;52.512;13.448;2023-02-18T04:28:09;9.40;67.90
63219;DHT22;49320;52.512;13.448;2023-02-18T04:30:39;9.40;67.90
63219;DHT22;49320;52.512;13.448;2023-02-18T04:33:06;9.30;67.90
63219;DHT22;49320;52.512;13.448;2023-02-18T04:35:32;9.30;67.80
63219;DHT22;49320;52.512;13.448;2023-02-18T04:40:27;9.30;67.20
63219;DHT22;49320;52.512;13.448;2023-02-18T04:42:56;9.30;67.80
63219;DHT22;49320;52.512;13.448;2023-02-18T04:45:26;9.30;67.90
63219;DHT22;49320;52.512;13.448;2023-02-18T04:47:53;9.30;67.20
63219;DHT22;49320;52.512;13.448;2023-02-18T04:50:21;9.30;67.80
63219;DHT22;49320;52.512;13.448;2023-02-18T04:52:48;9.30;67.20
63219;DHT22;49320;52.512;13.448;2023-02-18T04:55:15;9.10;67.70
63219;DHT22;49320;52.512;13.448;2023-02-18T04:57:42;9.10;67.80
63219;DHT22;49320;52.512;13.448;2023-02-18T05:00:14;9.20;67.80
63219;DHT22;49320;52.512;13.448;2023-02-18T05:02:43;9.20;67.90
63219;DHT22;49320;52.512;13.448;2023-02-18T05:05:11;9.20;67.20
63219;DHT22;49320;52.512;13.448;2023-02-18T05:10:09;9.20;67.20
63219;DHT22;49320;52.512;13.448;2023-02-18T05:12:39;9.20;67.30
63219;DHT22;49320;52.512;13.448;2023-02-18T05:15:07;9.20;67.90
63219;DHT22;49320;52.512;13.448;2023-02-18T05:17:34;9.20;67.10
63219;DHT22;49320;52.512;13.448;2023-02-18T05:20:01;9.20;67.90
63219;DHT22;49320;52.512;13.448;2023-02-18T05:22:29;9.20;67.40
63219;DHT22;49320;52.512;13.448;2023-02-18T05:24:55;9.20;68.00
63219;DHT22;49320;52.512;13.448;2023-02-18T05:27:22;9.20;68.00
63219;DHT22;49320;52.512;13.448;2023-02-18T05:29:49;9.20;67.90
63219;DHT22;49320;52.512;13.448;2023-02-18T05:32:16;9.20;68.00
63219;DHT22;49320;52.512;13.448;2023-02-18T05:34:43;9.30;68.00
63219;DHT22;49320;52.512;13.448;2023-02-18T05:37:09;9.30;67.90
63219;DHT22;49320;52.512;13.448;2023-02-18T05:39:36;9.30;67.30
63219;DHT22;49320;52.512;13.448;2023-02-18T05:42:03;9.30;67.10
63219;DHT22;49320;52.512;13.448;2023-02-18T05:44:30;9.40;67.80
63219;DHT22;49320;52.512;13.448;2023-02-18T05:47:08;9.40;67.10
63219;DHT22;49320;52.512;13.448;2023-02-18T05:52:06;9.50;66.80
63219;DHT22;49320;52.512;13.448;2023-02-18T05:54:34;9.60;67.10
63219;DHT22;49320;52.512;13.448;2023-02-18T05:57:02;9.50;66.80
63219;DHT22;49320;52.512;13.448;2023-02-18T05:59:29;9.70;67.50
63219;DHT22;49320;52.512;13.448;2023-02-18T06:04:24;9.70;66.80
63219;DHT22;49320;52.512;13.448;2023-02-18T06:06:51;9.70;67.40
63219;DHT22;49320;52.512;13.448;2023-02-18T06:09:18;9.80;67.20
63219;DHT22;49320;52.512;13.448;2023-02-18T06:11:45;9.80;67.20
63219;DHT22;49320;52.512;13.448;2023-02-18T06:14:11;10.00;67.30
63219;DHT22;49320;52.512;13.448;2023-02-18T06:16:38;9.90;67.10
63219;DHT22;49320;52.512;13.448;2023-02-18T06:19:05;9.90;66.20
63219;DHT22;49320;52.512;13.448;2023-02-18T06:21:32;10.00;67.10
63219;DHT22;49320;52.512;13.448;2023-02-18T06:23:59;10.00;65.50
63219;DHT22;49320;52.512;13.448;2023-02-18T06:26:26;10.00;66.60
63219;DHT22;49320;52.512;13.448;2023-02-18T06:28:52;10.00;66.50
63219;DHT22;49320;52.512;13.448;2023-02-18T06:31:19;9.90;65.70
63219;DHT22;49320;52.512;13.448;2023-02-18T06:33:46;10.10;66.30
63219;DHT22;49320;52.512;13.448;2023-02-18T06:36:13;10.10;65.30
63219;DHT22;49320;52.512;13.448;2023-02-18T06:38:42;10.20;65.80
63219;DHT22;49320;52.512;13.448;2023-02-18T06:41:12;10.20;66.30
63219;DHT22;49320;52.512;13.448;2023-02-18T06:43:40;10.20;66.30
63219;DHT22;49320;52.512;13.448;2023-02-18T06:46:07;10.20;66.20
63219;DHT22;49320;52.512;13.448;2023-02-18T06:48:34;10.20;65.40
63219;DHT22;49320;52.512;13.448;2023-02-18T06:51:01;10.30;65.30
63219;DHT22;49320;52.512;13.448;2023-02-18T06:53:28;10.30;65.10
63219;DHT22;49320;52.512;13.448;2023-02-18T06:55:55;10.30;66.10
63219;DHT22;49320;52.512;13.448;2023-02-18T06:58:22;10.30;66.10
63219;DHT22;49320;52.512;13.448;2023-02-18T07:00:49;10.30;65.90
63219;DHT22;49320;52.512;13.448;2023-02-18T07:03:16;10.40;66.00
63219;DHT22;49320;52.512;13.448;2023-02-18T07:05:43;10.40;66.00
63219;DHT22;49320;52.512;13.448;2023-02-18T07:08:10;10.40;66.00
63219;DHT22;49320;52.512;13.448;2023-02-18T07:10:37;10.40;66.00
63219;DHT22;49320;52.512;13.448;2023-02-18T07:13:05;10.50;65.10
63219;DHT22;49320;52.512;13.448;2023-02-18T07:15:32;10.50;64.80
63219;DHT22;49320;52.512;13.448;2023-02-18T07:17:59;10.50;65.80
63219;DHT22;49320;52.512;13.448;2023-02-18T07:20:26;10.50;64.50
63219;DHT22;49320;52.512;13.448;2023-02-18T07:22:53;10.50;65.60
63219;DHT22;49320;52.512;13.448;2023-02-18T07:25:21;10.50;65.40
63219;DHT22;49320;52.512;13.448;2023-02-18T07:27:49;10.50;65.40
63219;DHT22;49320;52.512;13.448;2023-02-18T07:30:18;10.50;65.50
63219;DHT22;49320;52.512;13.448;2023-02-18T07:32:45;10.60;65.70
63219;DHT22;49320;52.512;13.448;2023-02-18T07:35:14;10.50;65.60
63219;DHT22;49320;52.512;13.448;2023-02-18T07:37:46;10.60;65.50
63219;DHT22;49320;52.512;13.448;2023-02-18T07:40:16;10.60;65.40
63219;DHT22;49320;52.512;13.448;2023-02-18T07:45:12;10.70;64.90
63219;DHT22;49320;52.512;13.448;2023-02-18T07:47:39;10.70;64.90
63219;DHT22;49320;52.512;13.448;2023-02-18T07:50:08;10.80;65.30
63219;DHT22;49320;52.512;13.448;2023-02-18T07:52:35;10.80;65.80
63219;DHT22;49320;52.512;13.448;2023-02-18T07:55:02;10.80;65.70
63219;DHT22;49320;52.512;13.448;2023-02-18T07:57:29;10.90;65.80
63219;DHT22;49320;52.512;13.448;2023-02-18T07:59:56;10.90;65.10
63219;DHT22;49320;52.512;13.448;2023-02-18T08:02:23;10.90;65.70
63219;DHT22;49320;52.512;13.448;2023-02-18T08:04:50;11.00;64.90
63219;DHT22;49320;52.512;13.448;2023-02-18T08:07:19;11.00;65.70
63219;DHT22;49320;52.512;13.448;2023-02-18T08:09:47;11.00;65.70
63219;DHT22;49320;52.512;13.448;2023-02-18T08:12:16;11.40;65.90
63219;DHT22;49320;52.512;13.448;2023-02-18T08:22:04;11.00;65.80
63219;DHT22;49320;52.512;13.448;2023-02-18T08:24:31;11.00;66.50
63219;DHT22;49320;52.512;13.448;2023-02-18T08:29:27;11.00;65.70
63219;DHT22;49320;52.512;13.448;2023-02-18T08:34:23;11.00;65.80
63219;DHT22;49320;52.512;13.448;2023-02-18T08:36:51;11.30;66.90
63219;DHT22;49320;52.512;13.448;2023-02-18T08:39:18;11.00;66.10
63219;DHT22;49320;52.512;13.448;2023-02-18T08:41:44;11.00;66.30
63219;DHT22;49320;52.512;13.448;2023-02-18T08:44:12;11.00;66.30
63219;DHT22;49320;52.512;13.448;2023-02-18T08:46:38;11.00;66.50
63219;DHT22;49320;52.512;13.448;2023-02-18T08:49:05;11.00;67.20
63219;DHT22;49320;52.512;13.448;2023-02-18T08:54:00;11.00;67.00
63219;DHT22;49320;52.512;13.448;2023-02-18T08:56:27;11.00;67.90
63219;DHT22;49320;52.512;13.448;2023-02-18T08:58:54;11.10;67.90
63219;DHT22;49320;52.512;13.448;2023-02-18T09:01:21;11.10;68.00
63219;DHT22;49320;52.512;13.448;2023-02-18T09:03:48;11.00;67.90
63219;DHT22;49320;52.512;13.448;2023-02-18T09:06:15;11.00;67.80
63219;DHT22;49320;52.512;13.448;2023-02-18T09:08:42;11.00;68.40
63219;DHT22;49320;52.512;13.448;2023-02-18T09:11:09;11.00;68.20
63219;DHT22;49320;52.512;13.448;2023-02-18T09:13:37;11.00;68.60
63219;DHT22;49320;52.512;13.448;2023-02-18T09:16:06;11.00;68.10
63219;DHT22;49320;52.512;13.448;2023-02-18T09:18:36;11.00;68.90
63219;DHT22;49320;52.512;13.448;2023-02-18T09:21:05;11.00;68.60
63219;DHT22;49320;52.512;13.448;2023-02-18T09:23:34;11.00;69.20
63219;DHT22;49320;52.512;13.448;2023-02-18T09:26:07;11.00;69.40
63219;DHT22;49320;52.512;13.448;2023-02-18T09:28:40;11.00;69.60
63219;DHT22;49320;52.512;13.448;2023-02-18T09:31:09;11.00;69.80
63219;DHT22;49320;52.512;13.448;2023-02-18T09:33:42;11.00;69.90
63219;DHT22;49320;52.512;13.448;2023-02-18T09:36:11;11.00;70.30
63219;DHT22;49320;52.512;13.448;2023-02-18T09:38:39;11.00;70.30
63219;DHT22;49320;52.512;13.448;2023-02-18T09:41:09;11.10;70.50
63219;DHT22;49320;52.512;13.448;2023-02-18T09:43:48;11.10;70.70
63219;DHT22;49320;52.512;13.448;2023-02-18T09:46:23;11.20;70.80
63219;DHT22;49320;52.512;13.448;2023-02-18T09:48:56;11.10;71.00
63219;DHT22;49320;52.512;13.448;2023-02-18T09:51:26;11.10;71.20
63219;DHT22;49320;52.512;13.448;2023-02-18T09:53:52;11.10;71.20
63219;DHT22;49320;52.512;13.448;2023-02-18T09:56:26;11.20;71.70
63219;DHT22;49320;52.512;13.448;2023-02-18T09:58:58;11.20;71.70
63219;DHT22;49320;52.512;13.448;2023-02-18T10:01:36;11.20;71.80
63219;DHT22;49320;52.512;13.448;2023-02-18T10:06:45;11.20;72.00
63219;DHT22;49320;52.512;13.448;2023-02-18T10:11:57;11.30;72.40
63219;DHT22;49320;52.512;13.448;2023-02-18T10:14:33;11.20;72.10
63219;DHT22;49320;52.512;13.448;2023-02-18T10:17:02;11.30;72.50
63219;DHT22;49320;52.512;13.448;2023-02-18T10:22:03;11.30;72.80
63219;DHT22;49320;52.512;13.448;2023-02-18T10:24:47;11.30;72.90
63219;DHT22;49320;52.512;13.448;2023-02-18T10:27:29;11.30;73.20
63219;DHT22;49320;52.512;13.448;2023-02-18T10:30:20;11.30;73.30
63219;DHT22;49320;52.512;13.448;2023-02-18T10:33:45;11.30;73.50
63219;DHT22;49320;52.512;13.448;2023-02-18T10:36:42;11.30;74.40
63219;DHT22;49320;52.512;13.448;2023-02-18T10:39:47;11.30;74.00
63219;DHT22;49320;52.512;13.448;2023-02-18T10:43:08;11.10;74.70
63219;DHT22;49320;52.512;13.448;2023-02-18T10:45:48;11.30;74.90
63219;DHT22;49320;52.512;13.448;2023-02-18T10:51:23;11.30;74.90
63219;DHT22;49320;52.512;13.448;2023-02-18T10:53:54;11.30;75.10
63219;DHT22;49320;52.512;13.448;2023-02-18T10:56:33;11.30;74.80
63219;DHT22;49320;52.512;13.448;2023-02-18T10:59:20;11.30;75.30
63219;DHT22;49320;52.512;13.448;2023-02-18T11:01:58;11.40;75.70
63219;DHT22;49320;52.512;13.448;2023-02-18T11:04:36;11.40;75.50
63219;DHT22;49320;52.512;13.448;2023-02-18T11:07:13;11.40;75.00
63219;DHT22;49320;52.512;13.448;2023-02-18T11:09:53;11.40;75.50
63219;DHT22;49320;52.512;13.448;2023-02-18T11:12:44;11.40;75.50
63219;DHT22;49320;52.512;13.448;2023-02-18T11:17:44;11.40;75.50
63219;DHT22;49320;52.512;13.448;2023-02-18T11:20:33;11.40;75.30
63219;DHT22;49320;52.512;13.448;2023-02-18T11:23:15;11.50;76.60
63219;DHT22;49320;52.512;13.448;2023-02-18T11:26:04;11.40;76.70
63219;DHT22;49320;52.512;13.448;2023-02-18T11:28:46;11.50;76.90
63219;DHT22;49320;52.512;13.448;2023-02-18T11:31:25;11.60;76.70
63219;DHT22;49320;52.512;13.448;2023-02-18T11:33:59;11.60;76.40
63219;DHT22;49320;52.512;13.448;2023-02-18T11:36:34;11.60;76.30
63219;DHT22;49320;52.512;13.448;2023-02-18T11:39:04;11.50;76.30
63219;DHT22;49320;52.512;13.448;2023-02-18T11:41:45;11.50;75.30
63219;DHT22;49320;52.512;13.448;2023-02-18T11:44:34;11.50;76.10
63219;DHT22;49320;52.512;13.448;2023-02-18T11:49:39;11.50;76.60
63219;DHT22;49320;52.512;13.448;2023-02-18T11:55:06;11.40;77.70
63219;DHT22;49320;52.512;13.448;2023-02-18T11:57:48;11.40;76.40
63219;DHT22;49320;52.512;13.448;2023-02-18T12:03:06;11.40;77.10
63219;DHT22;49320;52.512;13.448;2023-02-18T12:05:41;11.40;78.40
63219;DHT22;49320;52.512;13.448;2023-02-18T12:08:23;11.40;78.30
63219;DHT22;49320;52.512;13.448;2023-02-18T12:10:55;11.40;78.50
63219;DHT22;49320;52.512;13.448;2023-02-18T12:13:52;11.30;78.20
63219;DHT22;49320;52.512;13.448;2023-02-18T12:22:27;11.50;79.70
63219;DHT22;49320;52.512;13.448;2023-02-18T12:25:19;11.50;80.40
63219;DHT22;49320;52.512;13.448;2023-02-18T12:28:14;11.60;80.20
63219;DHT22;49320;52.512;13.448;2023-02-18T12:31:12;11.60;80.60
63219;DHT22;49320;52.512;13.448;2023-02-18T12:34:06;11.60;81.40
63219;DHT22;49320;52.512;13.448;2023-02-18T12:37:04;11.70;81.70
63219;DHT22;49320;52.512;13.448;2023-02-18T12:45:49;11.80;81.60
63219;DHT22;49320;52.512;13.448;2023-02-18T12:48:43;11.90;82.40
63219;DHT22;49320;52.512;13.448;2023-02-18T12:52:07;11.90;83.10
63219;DHT22;49320;52.512;13.448;2023-02-18T12:55:38;12.00;81.60
63219;DHT22;49320;52.512;13.448;2023-02-18T12:58:19;12.00;83.30
63219;DHT22;49320;52.512;13.448;2023-02-18T13:03:42;12.20;83.90
63219;DHT22;49320;52.512;13.448;2023-02-18T13:07:18;12.30;83.20
63219;DHT22;49320;52.512;13.448;2023-02-18T13:13:19;12.50;85.40
63219;DHT22;49320;52.512;13.448;2023-02-18T13:16:00;12.60;84.30
63219;DHT22;49320;52.512;13.448;2023-02-18T13:18:37;12.70;83.80
63219;DHT22;49320;52.512;13.448;2023-02-18T13:21:15;12.80;84.40
63219;DHT22;49320;52.512;13.448;2023-02-18T13:23:45;12.90;84.00
63219;DHT22;49320;52.512;13.448;2023-02-18T13:26:18;13.00;84.20
63219;DHT22;49320;52.512;13.448;2023-02-18T13:35:08;13.30;84.50
63219;DHT22;49320;52.512;13.448;2023-02-18T13:38:20;13.30;85.80
63219;DHT22;49320;52.512;13.448;2023-02-18T13:41:00;13.40;85.30
63219;DHT22;49320;52.512;13.448;2023-02-18T13:43:32;13.30;84.20
63219;DHT22;49320;52.512;13.448;2023-02-18T13:46:08;13.40;84.40
63219;DHT22;49320;52.512;13.448;2023-02-18T13:51:45;13.50;86.20
63219;DHT22;49320;52.512;13.448;2023-02-18T13:57:18;13.50;86.10
63219;DHT22;49320;52.512;13.448;2023-02-18T13:59:51;13.50;86.20
63219;DHT22;49320;52.512;13.448;2023-02-18T14:04:52;13.50;85.50
63219;DHT22;49320;52.512;13.448;2023-02-18T14:25:50;13.60;88.10
63219;DHT22;49320;52.512;13.448;2023-02-18T14:31:27;13.50;86.80
63219;DHT22;49320;52.512;13.448;2023-02-18T14:40:36;13.60;87.00
63219;DHT22;49320;52.512;13.448;2023-02-18T14:43:53;13.60;86.30
63219;DHT22;49320;52.512;13.448;2023-02-18T14:46:55;14.70;88.60
63219;DHT22;49320;52.512;13.448;2023-02-18T14:49:41;13.70;85.60
63219;DHT22;49320;52.512;13.448;2023-02-18T14:52:21;13.60;86.40
63219;DHT22;49320;52.512;13.448;2023-02-18T14:54:55;13.70;86.30
63219;DHT22;49320;52.512;13.448;2023-02-18T14:57:40;13.50;86.60
63219;DHT22;49320;52.512;13.448;2023-02-18T15:00:16;13.60;87.40
63219;DHT22;49320;52.512;13.448;2023-02-18T15:02:52;13.60;86.50
63219;DHT22;49320;52.512;13.448;2023-02-18T15:05:27;13.60;87.20
63219;DHT22;49320;52.512;13.448;2023-02-18T15:07:56;13.60;87.10
63219;DHT22;49320;52.512;13.448;2023-02-18T15:10:42;13.60;88.00
63219;DHT22;49320;52.512;13.448;2023-02-18T15:13:21;13.50;87.00
63219;DHT22;49320;52.512;13.448;2023-02-18T15:16:11;13.40;86.00
63219;DHT22;49320;52.512;13.448;2023-02-18T15:18:44;13.50;87.30
63219;DHT22;49320;52.512;13.448;2023-02-18T15:21:29;13.50;87.00
63219;DHT22;49320;52.512;13.448;2023-02-18T15:24:22;13.50;87.10
63219;DHT22;49320;52.512;13.448;2023-02-18T15:27:11;13.50;87.30
63219;DHT22;49320;52.512;13.448;2023-02-18T15:29:40;13.40;87.80
63219;DHT22;49320;52.512;13.448;2023-02-18T15:32:20;13.40;86.80
63219;DHT22;49320;52.512;13.448;2023-02-18T15:34:54;13.40;87.40
63219;DHT22;49320;52.512;13.448;2023-02-18T15:37:24;13.40;87.70
63219;DHT22;49320;52.512;13.448;2023-02-18T15:39:51;13.40;87.70
63219;DHT22;49320;52.512;13.448;2023-02-18T15:42:38;13.40;86.90
63219;DHT22;49320;52.512;13.448;2023-02-18T15:45:16;13.40;88.80
63219;DHT22;49320;52.512;13.448;2023-02-18T15:47:47;13.40;87.30
63219;DHT22;49320;52.512;13.448;2023-02-18T15:50:20;13.50;88.50
63219;DHT22;49320;52.512;13.448;2023-02-18T15:52:50;13.50;87.90
63219;DHT22;49320;52.512;13.448;2023-02-18T15:55:30;13.40;87.20
63219;DHT22;49320;52.512;13.448;2023-02-18T15:58:11;13.50;86.70
63219;DHT22;49320;52.512;13.448;2023-02-18T16:03:27;13.40;87.50
63219;DHT22;49320;52.512;13.448;2023-02-18T16:11:57;13.50;87.30
63219;DHT22;49320;52.512;13.448;2023-02-18T16:14:37;13.50;86.50
63219;DHT22;49320;52.512;13.448;2023-02-18T16:17:18;13.50;87.10
63219;DHT22;49320;52.512;13.448;2023-02-18T16:19:52;13.50;87.20
63219;DHT22;49320;52.512;13.448;2023-02-18T16:22:41;13.50;87.00
63219;DHT22;49320;52.512;13.448;2023-02-18T16:25:17;13.70;86.80
63219;DHT22;49320;52.512;13.448;2023-02-18T16:28:22;13.50;87.20
63219;DHT22;49320;52.512;13.448;2023-02-18T16:30:53;13.50;87.30
63219;DHT22;49320;52.512;13.448;2023-02-18T16:33:20;13.40;86.80
63219;DHT22;49320;52.512;13.448;2023-02-18T16:35:47;13.40;87.70
63219;DHT22;49320;52.512;13.448;2023-02-18T16:38:21;13.40;87.30
63219;DHT22;49320;52.512;13.448;2023-02-18T16:40:50;13.40;87.40
63219;DHT22;49320;52.512;13.448;2023-02-18T16:43:24;13.40;87.10
63219;DHT22;49320;52.512;13.448;2023-02-18T16:45:55;13.30;86.60
63219;DHT22;49320;52.512;13.448;2023-02-18T16:48:33;13.30;87.20
63219;DHT22;49320;52.512;13.448;2023-02-18T16:51:05;13.30;86.40
63219;DHT22;49320;52.512;13.448;2023-02-18T16:53:40;13.30;86.20
63219;DHT22;49320;52.512;13.448;2023-02-18T16:56:34;13.10;85.80
63219;DHT22;49320;52.512;13.448;2023-02-18T16:59:00;13.00;86.50
63219;DHT22;49320;52.512;13.448;2023-02-18T17:01:30;12.80;85.10
63219;DHT22;49320;52.512;13.448;2023-02-18T17:03:58;12.80;85.10
63219;DHT22;49320;52.512;13.448;2023-02-18T17:06:27;12.70;85.10
63219;DHT22;49320;52.512;13.448;2023-02-18T17:08:55;11.90;84.50
63219;DHT22;49320;52.512;13.448;2023-02-18T17:11:23;12.40;85.30
63219;DHT22;49320;52.512;13.448;2023-02-18T17:13:52;12.30;85.30
63219;DHT22;49320;52.512;13.448;2023-02-18T17:16:20;12.10;85.30
63219;DHT22;49320;52.512;13.448;2023-02-18T17:18:48;12.00;85.90
63219;DHT22;49320;52.512;13.448;2023-02-18T17:21:20;11.90;85.80
63219;DHT22;49320;52.512;13.448;2023-02-18T17:23:50;11.90;85.70
63219;DHT22;49320;52.512;13.448;2023-02-18T17:26:18;11.80;86.10
63219;DHT22;49320;52.512;13.448;2023-02-18T17:28:48;11.70;85.90
63219;DHT22;49320;52.512;13.448;2023-02-18T17:31:19;11.70;85.70
63219;DHT22;49320;52.512;13.448;2023-02-18T17:33:49;11.60;85.70
63219;DHT22;49320;52.512;13.448;2023-02-18T17:36:16;11.60;85.90
63219;DHT22;49320;52.512;13.448;2023-02-18T17:38:44;11.50;86.00
63219;DHT22;49320;52.512;13.448;2023-02-18T17:41:14;11.40;85.60
63219;DHT22;49320;52.512;13.448;2023-02-18T17:43:41;11.30;86.20
63219;DHT22;49320;52.512;13.448;2023-02-18T17:46:13;11.20;85.90
63219;DHT22;49320;52.512;13.448;2023-02-18T17:48:42;11.20;86.40
63219;DHT22;49320;52.512;13.448;2023-02-18T17:51:24;11.10;86.00
63219;DHT22;49320;52.512;13.448;2023-02-18T17:53:52;11.10;86.80
63219;DHT22;49320;52.512;13.448;2023-02-18T17:56:19;11.00;86.60
63219;DHT22;49320;52.512;13.448;2023-02-18T17:58:47;11.00;86.60
63219;DHT22;49320;52.512;13.448;2023-02-18T18:01:14;11.00;86.60
63219;DHT22;49320;52.512;13.448;2023-02-18T18:03:43;11.00;86.70
63219;DHT22;49320;52.512;13.448;2023-02-18T18:06:18;11.00;86.80
63219;DHT22;49320;52.512;13.448;2023-02-18T18:08:46;10.90;86.90
63219;DHT22;49320;52.512;13.448;2023-02-18T18:11:19;10.90;86.70
63219;DHT22;49320;52.512;13.448;2023-02-18T18:13:49;10.90;86.50
63219;DHT22;49320;52.512;13.448;2023-02-18T18:16:18;10.90;86.40
63219;DHT22;49320;52.512;13.448;2023-02-18T18:18:45;10.90;86.40
63219;DHT22;49320;52.512;13.448;2023-02-18T18:21:26;10.90;86.20
63219;DHT22;49320;52.512;13.448;2023-02-18T18:23:55;10.80;86.20
63219;DHT22;49320;52.512;13.448;2023-02-18T18:26:22;10.80;86.10
63219;DHT22;49320;52.512;13.448;2023-02-18T18:28:50;10.80;85.80
63219;DHT22;49320;52.512;13.448;2023-02-18T18:31:17;10.80;86.10
63219;DHT22;49320;52.512;13.448;2023-02-18T18:33:46;10.80;86.00
63219;DHT22;49320;52.512;13.448;2023-02-18T18:36:16;10.80;85.50